Time;durP1;ratioP1;P1;durP2;ratioP2;P2;SDS_P1;SDS_P2;PMS_P1;PMS_P2;Temp;Humidity;BMP_temperature;BMP_pressure;BME280_temperature;BME280_humidity;BME280_pressure;Samples;Min_cycle;Max_cycle;Signal;HPM_P1;HPM_P2
2023/10/11 00:03:16;;;;;;;12.77;11.10;;;15.30;99.90;;;;;;5023849;28;20848;-74
2023/10/11 00:05:43;;;;;;;17.97;11.83;;;15.30;99.90;;;;;;5034577;28;20460;-74
2023/10/11 00:08:16;;;;;;;17.43;13.87;;;15.30;99.90;;;;;;5023017;28;20453;-73
2023/10/11 00:10:53;;;;;;;13.03;11.23;;;15.30;99.90;;;;;;5030180;28;20472;-73
2023/10/11 00:13:32;;;;;;;13.70;12.30;;;15.30;99.90;;;;;;5007183;28;20508;-74
2023/10/11 00:15:59;;;;;;;13.13;10.63;;;15.30;99.90;;;;;;5024312;28;20424;-74
2023/10/11 00:18:26;;;;;;;14.40;12.90;;;15.30;99.90;;;;;;5021168;28;20520;-72
2023/10/11 00:20:56;;;;;;;14.67;11.60;;;15.40;99.90;;;;;;5030991;28;20419;-74
2023/10/11 00:23:24;;;;;;;17.77;12.27;;;15.30;99.90;;;;;;4997068;28;20416;-74
2023/10/11 00:25:52;;;;;;;18.90;13.33;;;15.30;99.90;;;;;;5014763;28;20420;-73
2023/10/11 00:28:26;;;;;;;13.73;10.00;;;15.30;99.90;;;;;;5029772;28;20794;-74
2023/10/11 00:31:00;;;;;;;14.13;10.80;;;15.30;99.90;;;;;;5013609;28;20936;-74
2023/10/11 00:33:26;;;;;;;13.83;11.37;;;15.30;99.90;;;;;;5019053;28;20606;-73
2023/10/11 00:35:54;;;;;;;11.60;10.40;;;15.30;99.90;;;;;;5033467;28;20507;-73
2023/10/11 00:38:27;;;;;;;13.77;10.80;;;15.30;99.90;;;;;;5056446;22;20498;-71
2023/10/11 00:41:07;;;;;;;11.80;10.70;;;15.30;99.90;;;;;;5041783;28;20881;-70
2023/10/11 00:43:37;;;;;;;14.87;9.90;;;15.30;99.90;;;;;;5033206;28;20420;-69
2023/10/11 00:46:08;;;;;;;10.77;9.67;;;15.30;99.90;;;;;;5033282;28;20411;-69
2023/10/11 00:48:46;;;;;;;14.70;10.63;;;15.30;99.90;;;;;;5033814;28;20768;-70
2023/10/11 00:51:12;;;;;;;12.40;10.97;;;15.30;99.90;;;;;;5033733;28;20447;-71
2023/10/11 00:53:38;;;;;;;15.53;11.60;;;15.30;99.90;;;;;;5033380;28;20433;-72
2023/10/11 00:56:05;;;;;;;13.30;9.73;;;15.20;99.90;;;;;;5015150;28;20422;-70
2023/10/11 00:58:31;;;;;;;13.23;10.80;;;15.20;99.90;;;;;;5033033;28;20455;-70
2023/10/11 01:01:00;;;;;;;11.13;9.40;;;15.20;99.90;;;;;;5032875;28;20407;-70
2023/10/11 01:03:31;;;;;;;13.83;9.13;;;15.20;99.90;;;;;;5046197;28;20405;-70
2023/10/11 01:05:58;;;;;;;10.00;8.47;;;15.20;99.90;;;;;;5052208;28;20511;-71
2023/10/11 01:08:24;;;;;;;9.70;8.13;;;15.20;99.90;;;;;;5032272;28;20442;-71
2023/10/11 01:10:50;;;;;;;12.73;9.13;;;15.20;99.90;;;;;;5049435;28;20422;-72
2023/10/11 01:13:18;;;;;;;17.57;9.70;;;15.30;99.90;;;;;;5052746;28;20176;-72
2023/10/11 01:15:44;;;;;;;11.37;8.30;;;15.30;99.90;;;;;;5045432;28;20918;-71
2023/10/11 01:18:12;;;;;;;9.60;7.67;;;15.30;99.90;;;;;;5032765;28;20598;-72
2023/10/11 01:20:40;;;;;;;11.83;8.63;;;15.30;99.90;;;;;;5032903;28;20178;-70
2023/10/11 01:23:06;;;;;;;10.63;7.63;;;15.40;99.90;;;;;;5032464;28;20940;-72
2023/10/11 01:25:33;;;;;;;10.23;8.37;;;15.40;99.90;;;;;;5032970;28;20411;-70
2023/10/11 01:27:59;;;;;;;10.37;8.70;;;15.40;99.90;;;;;;5032620;28;20452;-70
2023/10/11 01:30:27;;;;;;;10.30;8.13;;;15.50;99.90;;;;;;5032932;28;20411;-70
2023/10/11 01:32:55;;;;;;;9.17;7.90;;;15.40;99.90;;;;;;5032548;28;20425;-70
2023/10/11 01:35:20;;;;;;;9.00;6.97;;;15.50;99.90;;;;;;5032416;28;20427;-71
2023/10/11 01:37:54;;;;;;;8.60;7.50;;;15.40;99.90;;;;;;5032159;28;20467;-69
2023/10/11 01:40:20;;;;;;;12.10;8.03;;;15.40;99.90;;;;;;5032915;28;20602;-69
2023/10/11 01:42:53;;;;;;;9.73;7.77;;;15.30;99.90;;;;;;5032522;28;20497;-70
2023/10/11 01:45:19;;;;;;;8.80;7.40;;;15.30;99.90;;;;;;5032653;28;20179;-70
2023/10/11 01:47:50;;;;;;;6.83;5.93;;;15.30;99.90;;;;;;5032105;28;20503;-70
2023/10/11 01:50:19;;;;;;;9.67;7.23;;;15.30;99.90;;;;;;5024224;28;20428;-69
2023/10/11 01:52:47;;;;;;;11.13;7.70;;;15.30;99.90;;;;;;5039525;28;20496;-70
2023/10/11 01:55:13;;;;;;;8.63;6.13;;;15.40;99.90;;;;;;5034126;28;20422;-70
2023/10/11 01:57:45;;;;;;;8.17;6.37;;;15.40;99.90;;;;;;5051898;28;20552;-70
2023/10/11 02:00:15;;;;;;;7.00;6.30;;;15.30;99.90;;;;;;5051956;28;20472;-70
2023/10/11 02:02:47;;;;;;;8.60;7.10;;;15.30;99.90;;;;;;5052162;28;20984;-70
2023/10/11 02:05:17;;;;;;;10.43;7.07;;;15.40;99.90;;;;;;5033010;28;20484;-69
2023/10/11 02:07:44;;;;;;;7.67;6.63;;;15.30;99.90;;;;;;5031956;28;20436;-71
2023/10/11 02:10:13;;;;;;;13.27;7.70;;;15.30;99.90;;;;;;5032182;28;20423;-71
2023/10/11 02:12:46;;;;;;;12.20;7.83;;;15.20;99.90;;;;;;5014338;28;20510;-71
2023/10/11 02:15:21;;;;;;;9.90;7.47;;;15.20;99.90;;;;;;5032640;28;20554;-73
2023/10/11 02:17:52;;;;;;;10.57;7.10;;;15.20;99.90;;;;;;5013821;28;20532;-71
2023/10/11 02:20:22;;;;;;;8.43;7.40;;;15.10;99.90;;;;;;5031905;28;20418;-71
2023/10/11 02:22:50;;;;;;;12.07;7.23;;;15.10;99.90;;;;;;5031473;28;20417;-72
2023/10/11 02:25:21;;;;;;;12.00;6.60;;;15.10;99.90;;;;;;5031280;28;20443;-71
2023/10/11 02:27:50;;;;;;;9.47;6.90;;;15.10;99.90;;;;;;5031286;28;20431;-71
2023/10/11 02:30:21;;;;;;;12.07;7.70;;;15.00;99.90;;;;;;5051127;28;20415;-70
2023/10/11 02:32:51;;;;;;;14.27;7.20;;;15.00;99.90;;;;;;5051542;28;20433;-71
2023/10/11 02:35:20;;;;;;;11.87;7.27;;;15.00;99.90;;;;;;5051239;28;20417;-70
2023/10/11 02:37:46;;;;;;;10.47;6.97;;;15.00;99.90;;;;;;5051143;28;20466;-72
2023/10/11 02:40:23;;;;;;;11.43;6.77;;;14.90;99.90;;;;;;5051625;28;20494;-71
2023/10/11 02:42:56;;;;;;;10.73;7.63;;;14.90;99.90;;;;;;5051707;28;20416;-71
2023/10/11 02:45:24;;;;;;;8.73;6.77;;;14.90;99.90;;;;;;5013944;28;20480;-70
2023/10/11 02:47:59;;;;;;;8.10;6.67;;;14.90;99.90;;;;;;5031666;28;20453;-71
2023/10/11 02:50:25;;;;;;;9.70;7.77;;;14.90;99.90;;;;;;5031665;28;20410;-71
2023/10/11 02:52:59;;;;;;;12.33;7.50;;;14.80;99.90;;;;;;5031017;28;20586;-70
2023/10/11 02:55:25;;;;;;;9.40;7.10;;;14.80;99.90;;;;;;5013502;28;20505;-71
2023/10/11 02:58:06;;;;;;;10.10;7.13;;;14.80;99.90;;;;;;5030910;28;20465;-70
2023/10/11 03:00:33;;;;;;;13.70;7.53;;;14.80;99.90;;;;;;5031148;28;20405;-71
2023/10/11 03:03:00;;;;;;;8.93;7.10;;;14.80;99.90;;;;;;5030931;28;20410;-70
2023/10/11 03:05:27;;;;;;;12.17;6.90;;;14.80;99.90;;;;;;5031152;28;20952;-71
2023/10/11 03:08:15;;;;;;;10.60;8.13;;;14.80;99.90;;;;;;5031071;28;20516;-71
2023/10/11 03:10:53;;;;;;;9.27;6.70;;;14.80;99.90;;;;;;5031217;28;20515;-72
2023/10/11 03:13:26;;;;;;;9.40;6.83;;;14.70;99.90;;;;;;5030609;28;20443;-71
2023/10/11 03:15:55;;;;;;;16.77;9.83;;;14.70;99.90;;;;;;5038848;28;20414;-71
2023/10/11 03:18:31;;;;;;;10.37;6.90;;;14.70;99.90;;;;;;5050694;28;20981;-72
2023/10/11 03:21:09;;;;;;;8.83;6.60;;;14.70;99.90;;;;;;5050936;28;20422;-71
2023/10/11 03:23:47;;;;;;;12.50;7.13;;;14.60;99.90;;;;;;5050518;28;20410;-71
2023/10/11 03:26:19;;;;;;;9.30;7.00;;;14.60;99.90;;;;;;5050665;28;20517;-71
2023/10/11 03:28:45;;;;;;;12.67;7.30;;;14.60;99.90;;;;;;5052857;28;20960;-70
2023/10/11 03:31:14;;;;;;;11.30;7.40;;;14.60;99.90;;;;;;5054495;28;20919;-71
2023/10/11 03:33:40;;;;;;;11.40;7.53;;;14.60;99.90;;;;;;5054355;28;20421;-71
2023/10/11 03:36:17;;;;;;;8.90;6.53;;;14.60;99.90;;;;;;5054994;28;20406;-71
2023/10/11 03:38:51;;;;;;;8.13;7.33;;;14.50;99.90;;;;;;5036481;28;20233;-71
2023/10/11 03:41:29;;;;;;;14.00;7.60;;;14.50;99.90;;;;;;5054719;28;20409;-72
2023/10/11 03:44:00;;;;;;;9.20;7.23;;;14.50;99.90;;;;;;5054257;28;20436;-72
2023/10/11 03:46:28;;;;;;;10.30;7.00;;;14.50;99.90;;;;;;5054315;28;20406;-71
2023/10/11 03:49:03;;;;;;;11.53;7.20;;;14.50;99.90;;;;;;5054171;28;20437;-71
2023/10/11 03:51:29;;;;;;;10.60;6.60;;;14.50;99.90;;;;;;5054433;28;20405;-70
2023/10/11 03:53:55;;;;;;;10.40;6.70;;;14.50;99.90;;;;;;5038014;28;20440;-70
2023/10/11 03:56:20;;;;;;;11.13;7.37;;;14.40;99.90;;;;;;5034160;28;20414;-70
2023/10/11 03:58:50;;;;;;;10.50;7.37;;;14.50;99.90;;;;;;5016514;28;20207;-70
2023/10/11 04:03:44;;;;;;;11.37;6.87;;;14.50;99.90;;;;;;5034550;28;20458;-71
2023/10/11 04:06:13;;;;;;;11.57;7.43;;;14.40;99.90;;;;;;5034159;28;20421;-71
2023/10/11 04:08:41;;;;;;;11.40;7.40;;;14.40;99.90;;;;;;5034233;28;20534;-70
2023/10/11 04:11:30;;;;;;;8.17;6.00;;;14.40;99.90;;;;;;5033874;28;20908;-71
2023/10/11 04:13:56;;;;;;;10.30;6.60;;;14.40;99.90;;;;;;5033934;28;20430;-72
2023/10/11 04:16:23;;;;;;;8.40;6.27;;;14.30;99.90;;;;;;5033892;28;20426;-71
2023/10/11 04:18:52;;;;;;;11.30;7.20;;;14.30;99.90;;;;;;5033678;28;20549;-70
2023/10/11 04:23:55;;;;;;;13.60;8.10;;;14.30;99.90;;;;;;5033485;28;20425;-71
2023/10/11 04:26:33;;;;;;;8.87;6.00;;;14.30;99.90;;;;;;5033673;28;20418;-70
2023/10/11 04:29:18;;;;;;;13.20;7.53;;;14.30;99.90;;;;;;5033549;28;20521;-70
2023/10/11 04:34:23;;;;;;;15.87;7.40;;;14.20;99.90;;;;;;5033238;28;20670;-69
2023/10/11 04:36:51;;;;;;;19.30;7.60;;;14.20;99.90;;;;;;5015955;28;20415;-70
2023/10/11 04:39:27;;;;;;;8.43;6.50;;;14.30;99.90;;;;;;5015128;28;20434;-70
2023/10/11 04:41:57;;;;;;;7.80;5.60;;;14.40;99.90;;;;;;5034264;28;20437;-69
2023/10/11 04:44:23;;;;;;;8.13;6.20;;;14.40;99.90;;;;;;5016146;28;20776;-71
2023/10/11 04:46:57;;;;;;;9.33;6.57;;;14.40;99.90;;;;;;5034085;28;20423;-70
2023/10/11 04:49:30;;;;;;;13.13;6.07;;;14.40;99.90;;;;;;5033448;28;20851;-70
2023/10/11 04:51:57;;;;;;;8.80;7.20;;;14.40;99.90;;;;;;5041025;28;20426;-70
2023/10/11 04:54:35;;;;;;;10.30;6.00;;;14.40;99.90;;;;;;5052854;28;20421;-72
2023/10/11 04:57:06;;;;;;;9.20;5.63;;;14.50;99.90;;;;;;5053201;28;20878;-71
2023/10/11 05:02:08;;;;;;;8.23;6.50;;;14.50;99.90;;;;;;5053103;28;20501;-71
2023/10/11 05:04:41;;;;;;;9.47;6.23;;;14.40;99.90;;;;;;5052756;28;20408;-71
2023/10/11 05:07:07;;;;;;;13.20;6.80;;;14.50;99.90;;;;;;5035447;28;20429;-71
2023/10/11 05:14:29;;;;;;;7.73;6.60;;;14.50;99.90;;;;;;5040717;28;20418;-71
2023/10/11 05:19:55;;;;;;;8.73;6.20;;;14.60;99.90;;;;;;5046073;28;20175;-70
2023/10/11 05:51:31;;;;;;;7.10;5.73;;;14.50;99.90;;;;;;5031446;28;20939;-71
2023/10/11 05:54:02;;;;;;;11.53;5.83;;;14.60;99.90;;;;;;5031630;28;20411;-70
2023/10/11 05:56:33;;;;;;;8.33;6.40;;;14.60;99.90;;;;;;5031500;28;20418;-70
2023/10/11 05:59:03;;;;;;;10.07;6.13;;;14.60;99.90;;;;;;5031431;28;20491;-70
2023/10/11 06:01:30;;;;;;;30.17;7.13;;;14.70;99.90;;;;;;5031217;28;20422;-70
2023/10/11 06:03:56;;;;;;;9.67;6.10;;;14.80;99.90;;;;;;5031213;28;20421;-72
2023/10/11 06:06:32;;;;;;;9.63;6.50;;;14.80;99.90;;;;;;5030932;28;20511;-70
2023/10/11 06:08:58;;;;;;;8.20;5.93;;;14.80;99.90;;;;;;5038457;28;20437;-70
2023/10/11 06:11:29;;;;;;;11.60;6.27;;;14.90;99.90;;;;;;5050994;28;20428;-70
2023/10/11 06:14:04;;;;;;;9.23;5.93;;;14.90;99.90;;;;;;5050859;28;20463;-70
2023/10/11 06:16:36;;;;;;;8.27;5.60;;;14.90;99.90;;;;;;5047643;28;20418;-72
2023/10/11 06:19:18;;;;;;;11.40;5.63;;;15.00;99.90;;;;;;5046691;28;20995;-71
2023/10/11 06:21:58;;;;;;;11.17;5.63;;;15.10;99.90;;;;;;5024214;28;20429;-72
2023/10/11 06:24:32;;;;;;;8.60;5.93;;;15.10;99.90;;;;;;5030106;28;20422;-70
2023/10/11 06:28:09;;;;;;;6.53;5.90;;;15.30;99.90;;;;;;5030183;28;20499;-72
2023/10/11 06:29:57;;;;;;;8.20;5.20;;;15.40;99.90;;;;;;5030013;28;20512;-70
2023/10/11 06:32:24;;;;;;;11.40;5.37;;;15.60;99.90;;;;;;5030076;28;20409;-71
2023/10/11 06:34:50;;;;;;;11.30;4.87;;;15.70;99.90;;;;;;5030234;28;20445;-70
2023/10/11 06:37:18;;;;;;;6.77;5.10;;;15.80;99.90;;;;;;5029619;28;20498;-73
2023/10/11 06:44:47;;;;;;;5.80;4.60;;;16.60;99.90;;;;;;5029995;28;20414;-69
2023/10/11 06:47:18;;;;;;;6.30;4.80;;;16.80;99.90;;;;;;5029930;28;20453;-68
2023/10/11 06:49:44;;;;;;;7.90;5.20;;;17.00;99.90;;;;;;5029787;28;20430;-68
2023/10/11 06:52:17;;;;;;;9.60;5.10;;;17.30;99.90;;;;;;5029907;28;20414;-69
2023/10/11 06:55:07;;;;;;;8.73;5.00;;;17.70;99.90;;;;;;5029647;28;20421;-69
2023/10/11 06:57:38;;;;;;;7.97;5.37;;;17.20;99.90;;;;;;5049387;22;20481;-71
2023/10/11 07:00:21;;;;;;;5.97;4.17;;;17.40;99.90;;;;;;5012291;28;20939;-71
2023/10/11 07:02:48;;;;;;;11.13;4.57;;;17.60;99.90;;;;;;5012519;28;20431;-72
2023/10/11 07:05:20;;;;;;;10.83;5.07;;;17.80;99.90;;;;;;5015975;28;20404;-69
2023/10/11 07:07:50;;;;;;;5.73;4.63;;;17.90;99.90;;;;;;5029163;28;20431;-69
2023/10/11 07:10:29;;;;;;;6.80;4.80;;;17.90;99.90;;;;;;5035149;28;20423;-69
2023/10/11 07:13:05;;;;;;;6.07;4.30;;;18.00;99.90;;;;;;5034906;28;20590;-69
2023/10/11 07:15:47;;;;;;;8.00;5.27;;;18.00;99.90;;;;;;5034971;28;20425;-68
2023/10/11 07:18:27;;;;;;;6.87;4.37;;;17.90;99.90;;;;;;5034860;28;20474;-67
2023/10/11 07:21:10;;;;;;;7.57;4.50;;;18.00;99.90;;;;;;5017163;28;20418;-68
2023/10/11 07:26:48;;;;;;;5.20;4.00;;;18.80;99.90;;;;;;5034963;28;20788;-68
2023/10/11 07:29:16;;;;;;;8.43;4.67;;;19.00;99.90;;;;;;5034431;28;20470;-67
2023/10/11 07:31:51;;;;;;;8.20;5.00;;;19.30;99.90;;;;;;5035946;28;20420;-70
2023/10/11 07:34:20;;;;;;;9.00;5.20;;;19.40;99.90;;;;;;5035917;28;20412;-71
2023/10/11 07:36:48;;;;;;;7.37;4.83;;;19.50;99.90;;;;;;5034934;28;20423;-70
2023/10/11 07:39:16;;;;;;;11.93;4.50;;;19.80;99.90;;;;;;5017942;28;20555;-68
2023/10/11 07:41:42;;;;;;;8.47;4.83;;;19.80;99.90;;;;;;5014957;28;20989;-67
2023/10/11 07:44:12;;;;;;;8.67;6.13;;;19.40;99.90;;;;;;5014558;28;20792;-70
2023/10/11 07:46:38;;;;;;;8.10;3.87;;;19.60;99.90;;;;;;5007186;28;20400;-70
2023/10/11 07:49:05;;;;;;;7.77;4.83;;;19.80;99.90;;;;;;5014649;28;20431;-70
2023/10/11 07:51:35;;;;;;;6.33;4.20;;;19.70;99.90;;;;;;5014592;28;20423;-68
2023/10/11 07:54:06;;;;;;;7.10;4.47;;;19.80;99.90;;;;;;5014618;28;20415;-67
2023/10/11 07:56:35;;;;;;;7.47;4.93;;;19.80;99.90;;;;;;5014959;28;20586;-71
2023/10/11 07:59:08;;;;;;;6.30;3.80;;;20.10;99.90;;;;;;5014139;28;20493;-67
2023/10/11 08:01:42;;;;;;;6.77;4.43;;;19.90;99.90;;;;;;5015236;28;20762;-68
2023/10/11 08:04:12;;;;;;;7.83;4.97;;;19.90;99.90;;;;;;5015100;28;20507;-68
2023/10/11 08:06:40;;;;;;;7.70;4.60;;;20.10;99.90;;;;;;5006791;28;20464;-69
2023/10/11 08:09:09;;;;;;;7.90;4.60;;;20.50;99.90;;;;;;5014308;28;20801;-68
2023/10/11 08:11:56;;;;;;;7.37;3.60;;;21.10;99.90;;;;;;5014887;28;20421;-69
2023/10/11 08:14:28;;;;;;;6.67;3.80;;;21.10;99.90;;;;;;5014606;28;20466;-68
2023/10/11 08:16:56;;;;;;;7.40;4.50;;;20.80;99.90;;;;;;5020335;28;20446;-68
2023/10/11 08:19:22;;;;;;;6.80;4.30;;;20.60;99.90;;;;;;5034128;28;20523;-68
2023/10/11 08:21:54;;;;;;;5.80;4.00;;;20.70;99.90;;;;;;5034114;28;20492;-68
2023/10/11 08:24:24;;;;;;;7.43;4.13;;;20.50;99.90;;;;;;5034078;28;20979;-68
2023/10/11 08:26:52;;;;;;;6.50;4.50;;;20.70;99.90;;;;;;5034121;28;20420;-69
2023/10/11 08:29:27;;;;;;;7.80;4.13;;;20.80;99.90;;;;;;5033764;28;20434;-69
2023/10/11 08:31:57;;;;;;;7.67;4.23;;;21.00;99.90;;;;;;5033835;28;20426;-68
2023/10/11 08:34:27;;;;;;;6.57;4.60;;;21.20;99.90;;;;;;5033701;28;20500;-71
2023/10/11 08:36:56;;;;;;;5.70;4.30;;;21.10;99.90;;;;;;5033805;28;20415;-69
2023/10/11 08:39:36;;;;;;;14.33;4.47;;;21.30;99.90;;;;;;5016042;28;20556;-70
2023/10/11 08:42:11;;;;;;;11.40;6.40;;;21.30;99.90;;;;;;5014007;28;20418;-68
2023/10/11 08:44:40;;;;;;;4.30;3.83;;;21.20;99.90;;;;;;5013484;28;20414;-71
2023/10/11 08:47:06;;;;;;;6.97;5.87;;;21.10;99.90;;;;;;5013598;28;20426;-68
2023/10/11 08:49:41;;;;;;;12.20;4.60;;;21.40;99.90;;;;;;5013611;28;20429;-69
2023/10/11 08:52:10;;;;;;;15.00;10.50;;;21.70;99.90;;;;;;5013735;28;20227;-70
2023/10/11 08:54:36;;;;;;;8.37;4.57;;;21.90;99.90;;;;;;5013481;28;20416;-68
2023/10/11 08:57:03;;;;;;;8.53;5.83;;;21.50;99.90;;;;;;5013785;28;20418;-68
2023/10/11 08:59:31;;;;;;;8.40;4.43;;;21.80;99.90;;;;;;5015396;28;20430;-67
2023/10/11 09:02:07;;;;;;;6.53;3.90;;;22.30;99.90;;;;;;5033168;28;20417;-67
2023/10/11 09:04:35;;;;;;;4.63;3.47;;;21.60;99.90;;;;;;5033004;28;20565;-68
2023/10/11 09:07:02;;;;;;;7.30;5.10;;;21.90;99.90;;;;;;5033293;28;20562;-68
2023/10/11 09:09:41;;;;;;;11.83;5.93;;;21.70;99.90;;;;;;5032787;28;20430;-68
2023/10/11 09:12:26;;;;;;;24.63;14.40;;;22.10;99.90;;;;;;5033083;28;20509;-68
2023/10/11 09:15:00;;;;;;;6.43;4.70;;;22.10;99.90;;;;;;5013010;28;20900;-68
2023/10/11 09:17:27;;;;;;;5.80;4.60;;;22.40;99.90;;;;;;5012869;28;20502;-70
2023/10/11 09:19:58;;;;;;;5.07;3.87;;;22.40;99.90;;;;;;5012909;28;20422;-68
2023/10/11 09:22:24;;;;;;;6.60;4.17;;;22.10;99.90;;;;;;5013029;28;20430;-67
2023/10/11 09:25:07;;;;;;;5.27;3.77;;;22.00;99.90;;;;;;5012866;28;20415;-67
2023/10/11 09:27:51;;;;;;;7.60;5.27;;;21.50;99.90;;;;;;5012714;28;20529;-67
2023/10/11 09:30:21;;;;;;;13.57;9.97;;;21.50;99.90;;;;;;5012780;28;20416;-70
2023/10/11 09:32:58;;;;;;;6.03;4.50;;;21.50;99.90;;;;;;5025139;28;20425;-68
2023/10/11 09:35:27;;;;;;;9.10;5.00;;;21.50;99.90;;;;;;5032368;28;20917;-68
2023/10/11 09:37:57;;;;;;;16.07;10.77;;;21.70;99.90;;;;;;5027069;28;20473;-70
2023/10/11 09:40:29;;;;;;;5.50;4.13;;;21.70;99.90;;;;;;5012789;28;20921;-68
2023/10/11 09:43:00;;;;;;;10.47;9.17;;;21.80;99.90;;;;;;5012521;28;20890;-67
2023/10/11 09:45:29;;;;;;;8.17;4.33;;;21.70;99.90;;;;;;5012657;28;20415;-67
2023/10/11 09:47:55;;;;;;;8.83;4.23;;;21.80;99.90;;;;;;5012498;28;20444;-68
2023/10/11 09:50:24;;;;;;;7.00;3.90;;;21.70;99.90;;;;;;4994890;28;20958;-67
2023/10/11 09:52:52;;;;;;;5.90;3.57;;;21.60;99.90;;;;;;5012322;28;20475;-68
2023/10/11 09:55:31;;;;;;;10.47;3.80;;;21.60;99.90;;;;;;5012284;28;20426;-68
2023/10/11 09:58:41;;;;;;;27.20;14.00;;;21.70;99.90;;;;;;5012196;28;20467;-68
2023/10/11 10:01:26;;;;;;;13.90;9.37;;;21.90;99.90;;;;;;4993681;28;20840;-70
2023/10/11 10:03:52;;;;;;;14.83;12.90;;;21.60;99.90;;;;;;5005371;28;20961;-70
2023/10/11 10:06:18;;;;;;;11.13;4.00;;;21.70;99.90;;;;;;4996656;28;20437;-68
2023/10/11 10:12:11;;;;;;;5.63;4.00;;;21.80;99.90;;;;;;5012299;28;20838;-71
2023/10/11 10:14:37;;;;;;;5.40;3.77;;;22.00;99.90;;;;;;5011897;28;20908;-68
2023/10/11 10:17:18;;;;;;;6.40;4.10;;;22.10;99.90;;;;;;5012147;28;20845;-70
2023/10/11 10:19:45;;;;;;;6.90;4.07;;;22.20;99.90;;;;;;5004246;28;20464;-68
2023/10/11 10:22:23;;;;;;;8.40;3.80;;;22.10;99.90;;;;;;5012042;28;20428;-70
2023/10/11 10:24:54;;;;;;;7.20;3.53;;;21.90;99.90;;;;;;5012082;28;20420;-67
2023/10/11 10:27:34;;;;;;;6.43;4.20;;;21.90;99.90;;;;;;5012019;28;20413;-69
2023/10/11 10:30:05;;;;;;;5.40;3.80;;;22.00;99.90;;;;;;5011961;28;20420;-67
2023/10/11 10:32:35;;;;;;;5.87;4.23;;;21.80;99.90;;;;;;5011777;28;20424;-66
2023/10/11 10:35:18;;;;;;;6.10;3.47;;;21.80;99.90;;;;;;5012046;28;20932;-68
2023/10/11 10:37:52;;;;;;;7.13;3.90;;;21.90;99.90;;;;;;5014133;28;20548;-68
2023/10/11 10:40:25;;;;;;;7.00;3.97;;;22.10;99.90;;;;;;5031630;28;20418;-67
2023/10/11 10:43:06;;;;;;;5.60;4.07;;;22.00;99.90;;;;;;5013749;28;20971;-67
2023/10/11 10:45:33;;;;;;;7.50;4.27;;;22.10;99.90;;;;;;5031420;28;20427;-67
2023/10/11 10:48:23;;;;;;;4.87;4.30;;;22.20;99.90;;;;;;5031265;28;20453;-67
2023/10/11 10:51:04;;;;;;;6.47;4.67;;;22.40;99.90;;;;;;5031646;28;20411;-67
2023/10/11 10:53:42;;;;;;;6.80;3.60;;;22.40;99.90;;;;;;5017350;28;20609;-70
2023/10/11 10:56:24;;;;;;;5.73;3.83;;;22.50;99.90;;;;;;5012643;28;20422;-69
2023/10/11 10:59:11;;;;;;;8.37;4.57;;;22.50;99.90;;;;;;5011593;28;20610;-72
2023/10/11 11:01:38;;;;;;;5.03;3.97;;;22.50;99.90;;;;;;5011912;28;20793;-68
2023/10/11 11:04:07;;;;;;;4.80;3.80;;;22.50;99.90;;;;;;5011519;28;20418;-67
2023/10/11 11:06:40;;;;;;;4.03;3.33;;;22.40;99.90;;;;;;5011833;28;20427;-67
2023/10/11 11:09:14;;;;;;;7.30;5.03;;;22.50;99.90;;;;;;5005676;28;20458;-70
2023/10/11 11:11:41;;;;;;;13.00;4.77;;;22.60;99.90;;;;;;5006630;28;20447;-72
2023/10/11 11:14:11;;;;;;;7.87;4.70;;;22.70;99.90;;;;;;5018392;28;20818;-68
2023/10/11 11:16:41;;;;;;;10.00;4.50;;;22.80;99.90;;;;;;5027531;28;20419;-70
2023/10/11 11:19:16;;;;;;;8.07;6.47;;;22.80;99.90;;;;;;5018143;28;20467;-67
2023/10/11 11:21:46;;;;;;;8.10;5.23;;;22.80;99.90;;;;;;5018643;28;20422;-67
2023/10/11 11:24:18;;;;;;;7.50;5.10;;;22.80;99.90;;;;;;5021812;28;20450;-67
2023/10/11 11:26:44;;;;;;;6.40;4.50;;;22.80;99.90;;;;;;5014120;28;20422;-68
2023/10/11 11:29:11;;;;;;;5.10;4.10;;;22.80;99.90;;;;;;5021907;28;20447;-68
2023/10/11 11:31:59;;;;;;;7.60;4.33;;;22.90;99.90;;;;;;5019221;28;20441;-68
2023/10/11 11:34:27;;;;;;;8.53;5.00;;;23.00;99.90;;;;;;5027512;28;20424;-67
2023/10/11 11:37:04;;;;;;;7.53;4.43;;;22.90;99.90;;;;;;5016171;28;20426;-67
2023/10/11 11:39:36;;;;;;;6.63;3.80;;;22.90;99.90;;;;;;5010084;28;20515;-67
2023/10/11 11:42:07;;;;;;;5.10;3.40;;;23.00;99.90;;;;;;5026720;28;20904;-69
2023/10/11 11:44:33;;;;;;;5.63;4.10;;;23.00;99.90;;;;;;5011546;28;20475;-70
2023/10/11 11:47:05;;;;;;;7.13;4.60;;;23.10;99.90;;;;;;5009293;28;20429;-75
2023/10/11 11:49:34;;;;;;;6.50;4.17;;;23.20;99.90;;;;;;5018128;28;20227;-69
2023/10/11 11:52:00;;;;;;;4.30;3.10;;;23.00;99.90;;;;;;5026281;28;20420;-67
2023/10/11 11:54:28;;;;;;;5.10;4.00;;;23.10;99.90;;;;;;5022640;28;20505;-70
2023/10/11 11:56:54;;;;;;;8.47;4.50;;;23.20;99.90;;;;;;5028567;28;20464;-70
2023/10/11 11:59:25;;;;;;;5.27;3.80;;;23.10;99.90;;;;;;5023686;28;20462;-69
2023/10/11 12:01:59;;;;;;;6.23;4.60;;;23.20;99.90;;;;;;5021567;28;20800;-69
2023/10/11 12:04:29;;;;;;;5.70;3.87;;;23.10;99.90;;;;;;5028506;28;20531;-70
2023/10/11 12:07:03;;;;;;;12.00;4.23;;;23.20;99.90;;;;;;5011892;28;20465;-68
2023/10/11 12:09:34;;;;;;;6.07;4.23;;;23.10;99.90;;;;;;5013152;28;20422;-67
2023/10/11 12:12:05;;;;;;;7.00;3.80;;;23.20;99.90;;;;;;5014170;28;20417;-71
2023/10/11 12:14:38;;;;;;;7.20;4.13;;;23.30;99.90;;;;;;5013123;28;20423;-68
2023/10/11 12:17:10;;;;;;;5.90;4.03;;;23.40;99.90;;;;;;5014542;28;20417;-67
2023/10/11 12:19:37;;;;;;;5.43;3.80;;;23.40;99.90;;;;;;5014039;28;20424;-68
2023/10/11 12:22:03;;;;;;;9.67;3.83;;;23.30;99.90;;;;;;5014123;28;20418;-67
2023/10/11 12:24:29;;;;;;;6.23;5.03;;;23.50;99.90;;;;;;4996352;28;20503;-67
2023/10/11 12:26:58;;;;;;;9.40;4.20;;;23.60;99.90;;;;;;5014412;28;20498;-68
2023/10/11 12:29:26;;;;;;;6.37;4.47;;;23.40;99.90;;;;;;5013936;28;20703;-68
2023/10/11 12:31:53;;;;;;;7.07;3.93;;;23.50;99.90;;;;;;5014513;28;20487;-71
2023/10/11 12:34:24;;;;;;;8.17;4.53;;;23.40;99.90;;;;;;5014493;28;20510;-68
2023/10/11 12:36:52;;;;;;;5.07;3.90;;;23.50;99.90;;;;;;5014945;28;20446;-68
2023/10/11 12:39:20;;;;;;;5.20;3.70;;;23.50;99.90;;;;;;5028999;28;20457;-68
2023/10/11 12:41:50;;;;;;;5.80;4.30;;;23.40;99.90;;;;;;5033869;28;20426;-71
2023/10/11 12:44:17;;;;;;;6.57;4.40;;;23.30;99.90;;;;;;5033374;28;20419;-71
2023/10/11 12:46:43;;;;;;;5.00;3.33;;;23.10;99.90;;;;;;5033402;28;20763;-68
2023/10/11 12:49:15;;;;;;;6.13;3.70;;;23.20;99.90;;;;;;5033358;28;20971;-68
2023/10/11 12:51:48;;;;;;;4.07;3.40;;;23.10;99.90;;;;;;5033289;28;20785;-69
2023/10/11 12:54:14;;;;;;;5.67;4.20;;;23.10;99.90;;;;;;5008334;28;20422;-68
2023/10/11 12:56:42;;;;;;;5.23;3.63;;;23.10;99.90;;;;;;5013369;28;20865;-71
2023/10/11 12:59:15;;;;;;;13.53;4.50;;;23.10;99.90;;;;;;5013431;28;20609;-68
2023/10/11 13:01:52;;;;;;;8.13;4.20;;;23.20;99.90;;;;;;5012667;28;20455;-68
2023/10/11 13:04:23;;;;;;;5.10;4.10;;;23.00;99.90;;;;;;5013185;28;20425;-69
2023/10/11 13:06:51;;;;;;;7.10;4.60;;;22.90;99.90;;;;;;5013362;28;20989;-71
2023/10/11 13:09:27;;;;;;;7.60;4.00;;;22.90;99.90;;;;;;5012922;28;20442;-68
2023/10/11 13:11:56;;;;;;;5.63;3.60;;;22.80;99.90;;;;;;5013337;28;20764;-69
2023/10/11 13:14:22;;;;;;;4.90;3.67;;;22.90;99.90;;;;;;5013281;28;20478;-67
2023/10/11 13:16:49;;;;;;;10.60;3.77;;;23.00;99.90;;;;;;5013327;28;20524;-68
2023/10/11 13:19:17;;;;;;;5.20;3.67;;;23.00;99.90;;;;;;5013096;28;20835;-68
2023/10/11 13:21:47;;;;;;;4.57;3.70;;;23.00;99.90;;;;;;5013068;28;20417;-69
2023/10/11 13:24:16;;;;;;;6.93;4.17;;;23.00;99.90;;;;;;5013172;28;20448;-72
2023/10/11 13:26:46;;;;;;;5.87;3.30;;;23.20;99.90;;;;;;5013075;28;20501;-70
2023/10/11 13:29:18;;;;;;;6.27;4.50;;;23.00;99.90;;;;;;5013125;28;20438;-69
2023/10/11 13:31:55;;;;;;;8.83;4.53;;;23.20;99.90;;;;;;5023262;28;20615;-69
2023/10/11 13:34:24;;;;;;;7.50;4.60;;;23.30;99.90;;;;;;5032827;28;20422;-68
2023/10/11 13:36:51;;;;;;;9.33;3.90;;;23.30;99.90;;;;;;5032646;28;20576;-68
2023/10/11 13:39:26;;;;;;;5.50;3.77;;;23.20;99.90;;;;;;5022143;28;20473;-71
2023/10/11 13:42:03;;;;;;;5.07;3.90;;;23.20;99.90;;;;;;5029919;28;20922;-68
2023/10/11 13:44:29;;;;;;;9.07;4.13;;;23.40;99.90;;;;;;5028765;28;20414;-68
2023/10/11 13:46:58;;;;;;;12.40;4.10;;;23.30;99.90;;;;;;5032539;28;20419;-68
2023/10/11 13:49:25;;;;;;;5.07;3.97;;;23.10;99.90;;;;;;5014589;28;20451;-70
2023/10/11 13:51:58;;;;;;;4.80;3.63;;;23.10;99.90;;;;;;5032215;28;20522;-68
2023/10/11 13:54:42;;;;;;;17.77;13.80;;;23.10;99.90;;;;;;5032278;28;20426;-69
2023/10/11 13:57:18;;;;;;;12.00;5.00;;;23.10;99.90;;;;;;5012178;28;20436;-72
2023/10/11 13:59:47;;;;;;;46.17;37.00;;;23.20;99.90;;;;;;5012351;28;20482;-70
2023/10/11 14:02:33;;;;;;;26.20;19.67;;;23.20;99.90;;;;;;5012844;28;20417;-68
2023/10/11 14:07:37;;;;;;;15.90;8.73;;;23.20;99.90;;;;;;5012324;28;20961;-70